Terminal Aerodrome Forecast
Issued by NWS Sioux Falls, SD

Home | Current Version | Previous Version | Text Only | Print | Product List | Glossary On
Versions: 1 2 3 4 5 6 7 8 9 10 11 12 13 14
000
FTUS43 KFSD 182336
TAFSUX
TAF
KSUX 182336Z 1900/1924 18008KT P6SM BKN025
     FM190100 13006KT P6SM SCT040
     FM190700 13006KT 4SM BR BKN005
     FM191300 13009KT 2SM BR BKN003
     FM191500 15012G18KT P6SM BKN008
     FM191800 15012KT P6SM BKN120=

USA.gov is the U.S. government's official web portal to all federal, state and local government web resources and services.